createdAt,value
2018-07-28T00:02:31.114Z,22.90
2018-07-28T00:05:35.487Z,22.90
2018-07-28T00:08:39.849Z,22.80
2018-07-28T00:11:44.389Z,22.80
2018-07-28T00:14:48.742Z,22.80
2018-07-28T00:17:53.139Z,22.80
2018-07-28T00:20:57.402Z,22.80
2018-07-28T00:24:01.714Z,22.80
2018-07-28T00:27:06.961Z,22.80
2018-07-28T00:30:12.744Z,22.80
2018-07-28T00:33:17.070Z,22.80
2018-07-28T00:36:21.378Z,22.70
2018-07-28T00:39:25.748Z,22.70
2018-07-28T00:42:30.235Z,22.70
2018-07-28T00:45:34.372Z,22.60
2018-07-28T00:48:38.530Z,22.60
2018-07-28T00:51:43.235Z,22.50
2018-07-28T00:54:47.820Z,22.50
2018-07-28T00:57:52.107Z,22.50
2018-07-28T01:00:56.286Z,22.40
2018-07-28T01:04:00.690Z,22.40
2018-07-28T01:07:05.091Z,22.30
2018-07-28T01:10:09.525Z,22.30
2018-07-28T01:13:13.784Z,22.20
2018-07-28T01:16:18.175Z,22.10
2018-07-28T01:19:22.529Z,22.10
2018-07-28T01:22:26.902Z,22.00
2018-07-28T01:25:31.238Z,22.00
2018-07-28T01:28:35.560Z,22.00
2018-07-28T01:31:39.905Z,22.00
2018-07-28T01:34:44.193Z,21.90
2018-07-28T01:37:48.590Z,21.90
2018-07-28T01:40:52.835Z,21.90
2018-07-28T01:43:57.261Z,21.80
2018-07-28T01:47:01.459Z,21.80
2018-07-28T01:50:06.654Z,21.80
2018-07-28T01:53:10.947Z,21.80
2018-07-28T01:56:15.483Z,21.80
2018-07-28T01:59:19.925Z,21.80
2018-07-28T02:02:24.348Z,21.70
2018-07-28T02:05:28.767Z,21.60
2018-07-28T02:08:33.099Z,21.60
2018-07-28T02:11:37.475Z,21.50
2018-07-28T02:14:41.747Z,21.50
2018-07-28T02:17:46.115Z,21.50
2018-07-28T02:20:50.451Z,21.40
2018-07-28T02:23:54.942Z,21.30
2018-07-28T02:26:59.254Z,21.30
2018-07-28T02:30:03.662Z,21.30
2018-07-28T02:33:08.185Z,21.40
2018-07-28T02:36:12.641Z,21.40
2018-07-28T02:39:16.951Z,21.50
2018-07-28T02:42:23.777Z,21.50
2018-07-28T02:45:28.119Z,21.40
2018-07-28T02:48:32.486Z,21.50
2018-07-28T02:51:36.898Z,21.50
2018-07-28T02:54:41.277Z,21.50
2018-07-28T02:57:45.726Z,21.60
2018-07-28T03:00:49.923Z,21.60
2018-07-28T03:03:54.302Z,21.60
2018-07-28T03:06:58.592Z,21.50
2018-07-28T03:10:02.946Z,21.50
2018-07-28T03:16:12.673Z,21.50
2018-07-28T03:19:16.927Z,21.50
2018-07-28T03:22:21.237Z,21.40
2018-07-28T03:25:25.670Z,21.40
2018-07-28T03:28:30.010Z,21.40
2018-07-28T03:31:34.356Z,21.30
2018-07-28T03:34:39.542Z,21.30
2018-07-28T03:37:44.566Z,21.20
2018-07-28T03:40:48.711Z,21.20
2018-07-28T03:43:52.926Z,21.20
2018-07-28T03:46:57.176Z,21.20
2018-07-28T03:50:01.414Z,21.20
2018-07-28T03:56:09.519Z,21.20
2018-07-28T03:59:13.997Z,21.20
2018-07-28T04:02:18.234Z,21.30
2018-07-28T04:05:22.574Z,21.30
2018-07-28T04:08:27.035Z,21.20
2018-07-28T04:11:31.314Z,21.20
2018-07-28T04:14:35.501Z,21.30
2018-07-28T04:17:50.733Z,21.30
2018-07-28T04:20:55.002Z,21.40
2018-07-28T04:23:59.386Z,21.50
2018-07-28T04:27:03.546Z,21.60
2018-07-28T04:30:08.017Z,21.70
2018-07-28T04:33:12.298Z,21.70
2018-07-28T04:36:16.655Z,21.70
2018-07-28T04:39:20.925Z,21.80
2018-07-28T04:42:25.299Z,21.80
2018-07-28T04:45:29.608Z,21.90
2018-07-28T04:48:33.923Z,21.80
2018-07-28T04:51:38.361Z,21.80
2018-07-28T04:54:43.083Z,21.70
2018-07-28T04:57:47.386Z,21.70
2018-07-28T05:00:51.755Z,21.60
2018-07-28T05:03:56.429Z,21.70
2018-07-28T05:07:00.907Z,21.70
2018-07-28T05:10:05.074Z,21.80
2018-07-28T05:13:09.242Z,21.90
2018-07-28T05:16:13.401Z,21.90
2018-07-28T05:19:17.864Z,22.00
2018-07-28T05:22:22.301Z,22.00
2018-07-28T05:25:26.741Z,22.10
2018-07-28T05:28:37.624Z,22.20
2018-07-28T05:31:41.862Z,22.20
2018-07-28T05:37:50.052Z,22.40
2018-07-28T05:40:54.519Z,22.40
2018-07-28T05:43:58.919Z,22.50
2018-07-28T05:47:03.246Z,22.70
2018-07-28T05:50:08.486Z,22.80
2018-07-28T05:53:12.934Z,22.90
2018-07-28T05:56:17.374Z,23.00
2018-07-28T05:59:21.856Z,23.20
2018-07-28T06:02:26.214Z,23.40
2018-07-28T06:05:30.602Z,23.70
2018-07-28T06:08:35.004Z,23.90
2018-07-28T06:11:39.474Z,24.10
2018-07-28T06:14:43.715Z,24.30
2018-07-28T06:17:48.217Z,24.50
2018-07-28T06:20:52.432Z,24.90
2018-07-28T06:23:56.772Z,25.20
2018-07-28T06:27:01.018Z,25.50
2018-07-28T06:30:05.921Z,25.80
2018-07-28T06:33:10.206Z,26.10
2018-07-28T06:36:14.497Z,26.30
2018-07-28T06:39:18.894Z,26.40
2018-07-28T06:42:23.291Z,26.50
2018-07-28T06:45:27.725Z,26.70
2018-07-28T06:48:32.000Z,26.80
2018-07-28T06:51:36.475Z,26.90
2018-07-28T06:54:40.983Z,27.00
2018-07-28T06:57:45.202Z,27.30
2018-07-28T07:00:51.018Z,27.80
2018-07-28T07:03:55.237Z,28.40
2018-07-28T07:06:59.490Z,29.20
2018-07-28T07:10:03.910Z,30.10
2018-07-28T07:13:08.390Z,31.10
2018-07-28T07:16:12.466Z,32.30
2018-07-28T07:19:16.842Z,33.60
2018-07-28T07:22:21.334Z,35.00
2018-07-28T07:25:25.650Z,35.90
2018-07-28T07:28:29.913Z,36.80
2018-07-28T07:31:34.337Z,37.50
2018-07-28T07:34:38.657Z,37.70
2018-07-28T07:37:43.400Z,37.60
2018-07-28T07:40:47.796Z,37.70
2018-07-28T07:43:52.063Z,37.90
2018-07-28T07:46:56.373Z,37.90
2018-07-28T07:50:00.726Z,37.90
2018-07-28T07:53:05.107Z,38.20
2018-07-28T07:56:09.482Z,38.60
2018-07-28T07:59:14.178Z,38.70
2018-07-28T08:02:18.568Z,38.50
2018-07-28T08:05:23.126Z,38.40
2018-07-28T08:08:27.427Z,38.30
2018-07-28T08:11:31.718Z,38.60
2018-07-28T08:14:36.055Z,38.70
2018-07-28T08:17:40.289Z,38.70
2018-07-28T08:20:44.664Z,38.40
2018-07-28T08:23:49.263Z,38.40
2018-07-28T08:26:56.391Z,38.30
2018-07-28T08:30:00.564Z,38.00
2018-07-28T08:33:05.281Z,38.00
2018-07-28T08:36:09.816Z,37.20
2018-07-28T08:39:15.317Z,36.40
2018-07-28T08:42:19.641Z,36.10
2018-07-28T08:45:23.999Z,35.90
2018-07-28T08:48:28.257Z,35.30
2018-07-28T08:51:32.594Z,35.10
2018-07-28T08:54:37.077Z,34.80
2018-07-28T08:57:41.569Z,34.00
2018-07-28T09:00:45.956Z,33.80
2018-07-28T09:03:50.398Z,33.60
2018-07-28T09:06:54.769Z,33.20
2018-07-28T09:09:59.608Z,32.90
2018-07-28T09:13:04.079Z,32.60
2018-07-28T09:16:08.511Z,32.10
2018-07-28T09:19:13.075Z,32.00
2018-07-28T09:22:17.272Z,31.90
2018-07-28T09:25:21.784Z,31.70
2018-07-28T09:28:26.080Z,31.60
2018-07-28T09:31:33.203Z,31.50
2018-07-28T09:34:37.574Z,31.40
2018-07-28T09:37:41.998Z,31.50
2018-07-28T09:40:46.637Z,31.70
2018-07-28T09:43:51.788Z,31.70
2018-07-28T09:46:56.324Z,31.50
2018-07-28T09:50:00.768Z,31.70
2018-07-28T09:53:05.154Z,31.70
2018-07-28T09:56:09.423Z,31.20
2018-07-28T09:59:13.644Z,31.30
2018-07-28T10:02:17.937Z,31.50
2018-07-28T10:05:22.676Z,31.80
2018-07-28T10:08:27.123Z,32.00
2018-07-28T10:11:31.478Z,31.90
2018-07-28T10:14:35.731Z,32.10
2018-07-28T10:17:39.971Z,32.00
2018-07-28T10:20:44.477Z,31.90
2018-07-28T10:23:48.806Z,31.90
2018-07-28T10:26:53.169Z,32.00
2018-07-28T10:29:57.477Z,31.80
2018-07-28T10:33:01.731Z,31.90
2018-07-28T10:36:06.308Z,32.00
2018-07-28T10:39:13.235Z,32.00
2018-07-28T10:42:17.615Z,31.90
2018-07-28T10:45:24.131Z,31.90
2018-07-28T10:48:28.291Z,32.10
2018-07-28T10:51:32.744Z,32.20
2018-07-28T10:54:37.289Z,32.00
2018-07-28T10:57:41.698Z,32.00
2018-07-28T11:00:46.013Z,32.00
2018-07-28T11:03:50.511Z,32.10
2018-07-28T11:06:54.566Z,32.20
2018-07-28T11:09:58.931Z,32.30
2018-07-28T11:13:03.292Z,32.30
2018-07-28T11:16:07.528Z,32.20
2018-07-28T11:19:12.054Z,32.10
2018-07-28T11:22:16.326Z,31.90
2018-07-28T11:25:20.772Z,31.70
2018-07-28T11:28:25.130Z,31.80
2018-07-28T11:31:40.128Z,31.90
2018-07-28T11:34:55.348Z,31.90
2018-07-28T11:38:41.807Z,32.00
2018-07-28T11:41:57.238Z,32.30
2018-07-28T11:45:13.085Z,32.20
2018-07-28T11:48:17.588Z,32.40
2018-07-28T11:51:21.963Z,32.50
2018-07-28T11:54:26.207Z,32.60
2018-07-28T11:57:31.618Z,32.70
2018-07-28T12:00:36.077Z,32.70
2018-07-28T12:03:40.539Z,32.50
2018-07-28T12:06:44.750Z,32.40
2018-07-28T12:09:49.381Z,32.30
2018-07-28T12:12:53.877Z,32.40
2018-07-28T12:15:58.165Z,32.20
2018-07-28T12:19:02.662Z,32.10
2018-07-28T12:22:07.301Z,32.00
2018-07-28T12:25:11.484Z,32.00
2018-07-28T12:28:15.865Z,32.00
2018-07-28T12:31:20.155Z,31.90
2018-07-28T12:34:24.646Z,31.90
2018-07-28T12:37:29.042Z,31.80
2018-07-28T12:40:33.369Z,31.90
2018-07-28T12:43:39.025Z,32.10
2018-07-28T12:46:43.346Z,32.30
2018-07-28T12:49:47.640Z,32.20
2018-07-28T12:52:52.152Z,32.10
2018-07-28T12:55:57.727Z,32.00
2018-07-28T12:59:02.265Z,31.90
2018-07-28T13:02:06.781Z,32.00
2018-07-28T13:05:11.150Z,32.10
2018-07-28T13:08:15.595Z,32.20
2018-07-28T13:11:19.840Z,32.40
2018-07-28T13:14:24.216Z,32.50
2018-07-28T13:17:28.715Z,32.60
2018-07-28T13:20:32.920Z,32.50
2018-07-28T13:23:37.408Z,32.30
2018-07-28T13:26:41.890Z,32.10
2018-07-28T13:29:46.188Z,32.00
2018-07-28T13:32:50.684Z,32.20
2018-07-28T13:35:55.063Z,32.20
2018-07-28T13:38:59.242Z,32.10
2018-07-28T13:42:03.815Z,32.30
2018-07-28T13:45:08.126Z,32.40
2018-07-28T13:48:12.559Z,32.40
2018-07-28T13:51:16.978Z,32.40
2018-07-28T13:54:21.309Z,32.40
2018-07-28T13:57:26.667Z,32.10
2018-07-28T14:00:31.448Z,31.70
2018-07-28T14:03:35.422Z,31.50
2018-07-28T14:06:39.667Z,31.60
2018-07-28T14:09:44.305Z,31.40
2018-07-28T14:12:49.348Z,31.30
2018-07-28T14:15:53.947Z,31.40
2018-07-28T14:18:58.931Z,31.30
2018-07-28T14:22:03.466Z,31.10
2018-07-28T14:25:08.097Z,31.20
2018-07-28T14:28:12.426Z,31.50
2018-07-28T14:31:16.924Z,31.70
2018-07-28T14:34:21.276Z,31.70
2018-07-28T14:37:25.631Z,31.70
2018-07-28T14:40:30.137Z,31.60
2018-07-28T14:43:34.379Z,31.70
2018-07-28T14:46:38.913Z,31.70
2018-07-28T14:49:43.179Z,31.80
2018-07-28T14:52:47.510Z,31.90
2018-07-28T14:55:51.779Z,31.90
2018-07-28T14:58:57.117Z,31.60
2018-07-28T15:02:02.339Z,31.40
2018-07-28T15:08:10.728Z,31.70
2018-07-28T15:11:15.454Z,31.90
2018-07-28T15:14:19.967Z,31.90
2018-07-28T15:17:24.377Z,31.80
2018-07-28T15:20:28.614Z,31.70
2018-07-28T15:23:33.101Z,31.60
2018-07-28T15:26:37.399Z,31.60
2018-07-28T15:29:41.583Z,31.70
2018-07-28T15:32:46.067Z,31.70
2018-07-28T15:35:50.383Z,31.70
2018-07-28T15:38:54.572Z,31.70
2018-07-28T15:41:59.457Z,31.70
2018-07-28T15:45:03.938Z,31.80
2018-07-28T15:48:08.195Z,31.80
2018-07-28T15:51:12.653Z,32.00
2018-07-28T15:54:16.920Z,31.90
2018-07-28T15:57:21.101Z,31.90
2018-07-28T16:00:25.488Z,31.90
2018-07-28T16:03:29.810Z,31.90
2018-07-28T16:06:34.085Z,32.00
2018-07-28T16:09:38.594Z,32.00
2018-07-28T16:12:43.075Z,31.90
2018-07-28T16:15:47.878Z,31.80
2018-07-28T16:18:52.173Z,31.80
2018-07-28T16:21:56.616Z,31.70
2018-07-28T16:25:00.976Z,31.80
2018-07-28T16:28:05.312Z,31.70
2018-07-28T16:31:09.651Z,31.80
2018-07-28T16:34:14.121Z,31.80
2018-07-28T16:37:18.477Z,31.60
2018-07-28T16:40:23.023Z,31.50
2018-07-28T16:43:27.601Z,31.50
2018-07-28T16:46:32.134Z,31.50
2018-07-28T16:49:36.563Z,31.40
2018-07-28T16:52:40.947Z,31.40
2018-07-28T16:55:45.384Z,31.40
2018-07-28T16:58:49.854Z,31.30
2018-07-28T17:01:54.301Z,31.30
2018-07-28T17:04:58.594Z,31.20
2018-07-28T17:08:02.892Z,31.00
2018-07-28T17:11:07.266Z,30.90
2018-07-28T17:14:11.890Z,30.80
2018-07-28T17:17:16.322Z,30.60
2018-07-28T17:20:20.829Z,30.40
2018-07-28T17:23:24.992Z,30.40
2018-07-28T17:26:35.088Z,30.40
2018-07-28T17:29:39.394Z,30.40
2018-07-28T17:32:44.416Z,30.30
2018-07-28T17:35:49.989Z,30.30
2018-07-28T17:38:54.406Z,30.30
2018-07-28T17:41:58.805Z,30.30
2018-07-28T17:45:03.815Z,30.30
2018-07-28T17:48:08.183Z,30.20
2018-07-28T17:51:12.559Z,30.10
2018-07-28T17:54:16.872Z,30.00
2018-07-28T17:57:21.157Z,29.90
2018-07-28T18:00:25.673Z,29.80
2018-07-28T18:03:30.346Z,29.70
2018-07-28T18:06:35.536Z,29.70
2018-07-28T18:09:39.896Z,29.70
2018-07-28T18:12:44.597Z,29.70
2018-07-28T18:15:48.730Z,29.70
2018-07-28T18:18:53.218Z,29.60
2018-07-28T18:21:57.803Z,29.50
2018-07-28T18:25:02.335Z,29.20
2018-07-28T18:28:06.656Z,29.10
2018-07-28T18:31:11.150Z,28.80
2018-07-28T18:34:15.681Z,28.70
2018-07-28T18:37:20.158Z,28.60
2018-07-28T18:40:24.421Z,28.40
2018-07-28T18:43:28.764Z,28.30
2018-07-28T18:46:33.238Z,28.20
2018-07-28T18:49:37.518Z,28.10
2018-07-28T18:52:41.769Z,28.10
2018-07-28T18:55:46.355Z,28.10
2018-07-28T18:58:50.690Z,27.90
2018-07-28T19:01:55.147Z,27.80
2018-07-28T19:04:59.852Z,27.60
2018-07-28T19:08:04.116Z,27.50
2018-07-28T19:14:17.047Z,27.30
2018-07-28T19:20:25.690Z,27.00
2018-07-28T19:23:35.073Z,26.90
2018-07-28T19:26:39.533Z,26.80
2018-07-28T19:29:44.736Z,26.80
2018-07-28T19:32:49.352Z,26.70
2018-07-28T19:35:59.190Z,26.70
2018-07-28T19:39:03.745Z,26.60
2018-07-28T19:42:13.418Z,26.60
2018-07-28T19:45:17.824Z,26.50
2018-07-28T19:48:22.301Z,26.50
2018-07-28T19:51:26.477Z,26.60
2018-07-28T19:54:31.135Z,26.70
2018-07-28T19:57:35.593Z,26.70
2018-07-28T20:00:39.939Z,26.70
2018-07-28T20:03:44.289Z,26.80
2018-07-28T20:06:48.642Z,26.70
2018-07-28T20:09:52.974Z,26.70
2018-07-28T20:12:57.553Z,26.70
2018-07-28T20:16:03.074Z,26.70
2018-07-28T20:19:09.186Z,26.80
2018-07-28T20:22:15.734Z,26.80
2018-07-28T20:25:20.637Z,26.80
2018-07-28T20:28:24.906Z,26.80
2018-07-28T20:31:30.177Z,26.80
2018-07-28T20:34:34.392Z,26.80
2018-07-28T20:37:38.840Z,26.80
2018-07-28T20:40:43.478Z,26.80
2018-07-28T20:43:47.984Z,26.70
2018-07-28T20:46:57.776Z,26.60
2018-07-28T20:50:02.106Z,26.50
2018-07-28T20:53:06.682Z,26.40
2018-07-28T20:56:11.135Z,26.40
2018-07-28T20:59:15.898Z,26.30
2018-07-28T21:02:20.377Z,26.30
2018-07-28T21:05:25.984Z,26.20
2018-07-28T21:08:30.717Z,26.10
2018-07-28T21:11:35.271Z,26.10
2018-07-28T21:14:40.898Z,26.00
2018-07-28T21:17:45.761Z,26.00
2018-07-28T21:20:50.493Z,26.00
2018-07-28T21:27:02.111Z,25.90
2018-07-28T21:30:06.334Z,25.80
2018-07-28T21:33:13.259Z,25.70
2018-07-28T21:36:18.557Z,25.70
2018-07-28T21:39:23.802Z,25.60
2018-07-28T21:42:28.423Z,25.60
2018-07-28T21:45:35.793Z,25.60
2018-07-28T21:48:40.145Z,25.60
2018-07-28T21:51:45.284Z,25.60
2018-07-28T21:54:51.750Z,25.50
2018-07-28T21:57:57.173Z,25.60
2018-07-28T22:01:10.573Z,25.60
2018-07-28T22:04:20.292Z,25.50
2018-07-28T22:07:24.851Z,25.50
2018-07-28T22:10:29.384Z,25.50
2018-07-28T22:13:33.585Z,25.40
2018-07-28T22:16:37.830Z,25.50
2018-07-28T22:19:42.110Z,25.50
2018-07-28T22:22:46.843Z,25.50
2018-07-28T22:25:51.082Z,25.50
2018-07-28T22:28:55.458Z,25.40
2018-07-28T22:31:59.831Z,25.40
2018-07-28T22:35:04.976Z,25.40
2018-07-28T22:38:09.146Z,25.40
2018-07-28T22:41:13.543Z,25.40
2018-07-28T22:44:17.782Z,25.30
2018-07-28T22:47:22.544Z,25.30
2018-07-28T22:50:26.809Z,25.20
2018-07-28T22:53:31.063Z,25.20
2018-07-28T22:56:35.458Z,25.20
2018-07-28T22:59:39.677Z,25.20
2018-07-28T23:02:43.945Z,25.10
2018-07-28T23:05:48.230Z,25.10
2018-07-28T23:08:52.758Z,25.00
2018-07-28T23:11:57.203Z,25.00
2018-07-28T23:15:01.564Z,24.90
2018-07-28T23:18:06.156Z,24.80
2018-07-28T23:21:10.517Z,24.80
2018-07-28T23:24:14.838Z,24.70
2018-07-28T23:27:20.391Z,24.60
2018-07-28T23:30:24.970Z,24.60
2018-07-28T23:33:29.546Z,24.50
2018-07-28T23:36:34.712Z,24.40
2018-07-28T23:39:39.087Z,24.40
2018-07-28T23:42:44.526Z,24.40
2018-07-28T23:45:48.739Z,24.40
2018-07-28T23:48:53.086Z,24.40
2018-07-28T23:51:57.516Z,24.40
2018-07-28T23:55:01.916Z,24.40
2018-07-28T23:58:06.348Z,24.40
